PWSweather.com
Personal Weather Stations
Station Observations
S56IPS
Mostec 12, MostecSI 8257

Mostec 12MostecSI 8257

Lat: 45.899181, Lon: 15.628339

Elevation: 143

Station Type: WX-2008

Latest ConditionsUpdated 4:20:01 PM GMT+01:01 Friday, Jul 31, 2015
Currently Today's Max Today's Min Today's Average
Temperature 82.8°F28.2°C 82.8°F28.2°C 57.2°F14.0°C 66.8°F19.3°C
Dew Point 67.0°F19.4°C 67.9°F19.9°C 56.9°F13.8°C 62.0°F16.7°C
Winds Calm Calm 0.4 mph E0.6 kmh E - 0.1 mph 0.2 kmh
Wind Gusts 2.2 mph3.5 kmh 2.5 mph4.0 kmh - -
Humidity 59% 99% 59% 87%
Pressure 30.06 in1017.9 mb 30.10 in1019.3 mb 30.01 in1016.3 mb -
Precipitation - 0.34 in8.6 mm - -
Hour Temp Dew Point Humidity Winds Wind Gusts Pressure Precip Precip Rate Daily Precip Total
04:20 PM 82.8°F28.2°C 67.0°F19.4°C 59% Calm Calm 2.2 mph3.5 kmh 30.06 in1017.9 mb 0.00 in0.0 mm 0.00 in0.0 mm 0.34 in8.6 mm
04:15 PM 82.8°F28.2°C 67.0°F19.4°C 59% Calm Calm 2.2 mph3.5 kmh 30.06 in1017.9 mb 0.00 in0.0 mm 0.00 in0.0 mm 0.34 in8.6 mm
04:10 PM 82.8°F28.2°C 67.0°F19.4°C 59% Calm Calm 2.2 mph3.5 kmh 30.06 in1017.9 mb 0.00 in0.0 mm 0.00 in0.0 mm 0.34 in8.6 mm
04:05 PM 82.8°F28.2°C 67.0°F19.4°C 59% Calm Calm 2.2 mph3.5 kmh 30.06 in1017.9 mb 0.00 in0.0 mm 0.00 in0.0 mm 0.34 in8.6 mm
04:00 PM 82.8°F28.2°C 67.0°F19.4°C 59% Calm Calm 2.2 mph3.5 kmh 30.06 in1017.9 mb 0.00 in0.0 mm 0.00 in0.0 mm 0.34 in8.6 mm
03:55 PM 82.8°F28.2°C 67.0°F19.4°C 59% Calm Calm 2.2 mph3.5 kmh 30.06 in1017.9 mb 0.00 in0.0 mm 0.00 in0.0 mm 0.34 in8.6 mm
03:50 PM 82.8°F28.2°C 67.0°F19.4°C 59% Calm Calm 2.2 mph3.5 kmh 30.06 in1017.9 mb 0.00 in0.0 mm 0.00 in0.0 mm 0.34 in8.6 mm
03:45 PM 82.8°F28.2°C 67.0°F19.4°C 59% Calm Calm 2.2 mph3.5 kmh 30.06 in1017.9 mb 0.00 in0.0 mm 0.00 in0.0 mm 0.34 in8.6 mm
03:40 PM 82.8°F28.2°C 67.0°F19.4°C 59% Calm Calm 2.2 mph3.5 kmh 30.06 in1017.9 mb 0.00 in0.0 mm 0.00 in0.0 mm 0.34 in8.6 mm
03:35 PM 82.8°F28.2°C 67.0°F19.4°C 59% Calm Calm 2.2 mph3.5 kmh 30.06 in1017.9 mb 0.00 in0.0 mm 0.00 in0.0 mm 0.34 in8.6 mm
03:30 PM 82.8°F28.2°C 67.0°F19.4°C 59% Calm Calm 2.2 mph3.5 kmh 30.06 in1017.9 mb 0.00 in0.0 mm 0.00 in0.0 mm 0.34 in8.6 mm
03:25 PM 82.8°F28.2°C 67.0°F19.4°C 59% Calm Calm 2.2 mph3.5 kmh 30.06 in1017.9 mb 0.00 in0.0 mm 0.00 in0.0 mm 0.34 in8.6 mm
03:20 PM 82.8°F28.2°C 67.0°F19.4°C 59% Calm Calm 2.2 mph3.5 kmh 30.06 in1017.9 mb 0.00 in0.0 mm 0.00 in0.0 mm 0.34 in8.6 mm
03:15 PM 82.8°F28.2°C 67.0°F19.4°C 59% Calm Calm 2.2 mph3.5 kmh 30.06 in1017.9 mb 0.00 in0.0 mm 0.00 in0.0 mm 0.34 in8.6 mm
03:10 PM 82.8°F28.2°C 67.0°F19.4°C 59% Calm Calm 2.2 mph3.5 kmh 30.06 in1017.9 mb 0.00 in0.0 mm 0.00 in0.0 mm 0.34 in8.6 mm
03:05 PM 82.8°F28.2°C 67.0°F19.4°C 59% Calm Calm 2.2 mph3.5 kmh 30.06 in1017.9 mb 0.00 in0.0 mm 0.00 in0.0 mm 0.34 in8.6 mm
03:00 PM 82.8°F28.2°C 67.0°F19.4°C 59% Calm Calm 2.2 mph3.5 kmh 30.06 in1017.9 mb 0.00 in0.0 mm 0.00 in0.0 mm 0.34 in8.6 mm
02:55 PM 82.8°F28.2°C 67.0°F19.4°C 59% Calm Calm 2.2 mph3.5 kmh 30.06 in1017.9 mb 0.00 in0.0 mm 0.00 in0.0 mm 0.34 in8.6 mm
02:50 PM 82.8°F28.2°C 67.0°F19.4°C 59% Calm Calm 2.2 mph3.5 kmh 30.06 in1017.9 mb 0.00 in0.0 mm 0.00 in0.0 mm 0.34 in8.6 mm
02:45 PM 82.8°F28.2°C 67.0°F19.4°C 59% Calm Calm 2.2 mph3.5 kmh 30.06 in1017.9 mb 0.00 in0.0 mm 0.00 in0.0 mm 0.34 in8.6 mm
02:40 PM 82.8°F28.2°C 67.0°F19.4°C 59% Calm Calm 2.2 mph3.5 kmh 30.06 in1017.9 mb 0.00 in0.0 mm 0.00 in0.0 mm 0.34 in8.6 mm
02:35 PM 82.8°F28.2°C 67.0°F19.4°C 59% Calm Calm 2.2 mph3.5 kmh 30.06 in1017.9 mb 0.00 in0.0 mm 0.00 in0.0 mm 0.34 in8.6 mm
02:30 PM 82.8°F28.2°C 67.0°F19.4°C 59% Calm Calm 2.2 mph3.5 kmh 30.06 in1017.9 mb 0.00 in0.0 mm 0.00 in0.0 mm 0.34 in8.6 mm
02:25 PM 82.8°F28.2°C 67.0°F19.4°C 59% Calm Calm 2.2 mph3.5 kmh 30.06 in1017.9 mb 0.00 in0.0 mm 0.00 in0.0 mm 0.34 in8.6 mm
02:20 PM 82.8°F28.2°C 67.0°F19.4°C 59% Calm Calm 2.2 mph3.5 kmh 30.06 in1017.9 mb 0.00 in0.0 mm 0.00 in0.0 mm 0.34 in8.6 mm
02:15 PM 82.8°F28.2°C 67.0°F19.4°C 59% Calm Calm 2.2 mph3.5 kmh 30.06 in1017.9 mb 0.00 in0.0 mm 0.00 in0.0 mm 0.34 in8.6 mm
02:10 PM 82.8°F28.2°C 67.0°F19.4°C 59% Calm Calm 2.2 mph3.5 kmh 30.06 in1017.9 mb 0.00 in0.0 mm 0.00 in0.0 mm 0.34 in8.6 mm
02:05 PM 82.8°F28.2°C 67.0°F19.4°C 59% Calm Calm 2.2 mph3.5 kmh 30.06 in1017.9 mb 0.00 in0.0 mm 0.00 in0.0 mm 0.34 in8.6 mm
02:00 PM 82.8°F28.2°C 67.0°F19.4°C 59% Calm Calm 2.2 mph3.5 kmh 30.06 in1017.9 mb 0.00 in0.0 mm 0.00 in0.0 mm 0.34 in8.6 mm
01:55 PM 82.8°F28.2°C 67.0°F19.4°C 59% Calm Calm 2.2 mph3.5 kmh 30.06 in1017.9 mb 0.00 in0.0 mm 0.00 in0.0 mm 0.34 in8.6 mm
01:50 PM 82.8°F28.2°C 67.0°F19.4°C 59% Calm Calm 2.2 mph3.5 kmh 30.06 in1017.9 mb 0.00 in0.0 mm 0.00 in0.0 mm 0.34 in8.6 mm
01:45 PM 82.8°F28.2°C 67.0°F19.4°C 59% Calm Calm 2.2 mph3.5 kmh 30.06 in1017.9 mb 0.00 in0.0 mm 0.00 in0.0 mm 0.34 in8.6 mm
01:40 PM 82.8°F28.2°C 67.5°F19.7°C 60% Calm Calm 1.3 mph2.1 kmh 30.06 in1017.9 mb 0.00 in0.0 mm 0.00 in0.0 mm 0.34 in8.6 mm
01:35 PM 81.9°F27.7°C 67.1°F19.5°C 61% Calm Calm 1.3 mph2.1 kmh 30.06 in1017.9 mb 0.00 in0.0 mm 0.00 in0.0 mm 0.34 in8.6 mm
01:30 PM 81.0°F27.2°C 65.8°F18.8°C 60% 0.2 mph SSE0.3 kmh SSE 1.1 mph1.8 kmh 30.06 in1017.9 mb 0.00 in0.0 mm 0.00 in0.0 mm 0.34 in8.6 mm
01:25 PM 79.9°F26.6°C 65.3°F18.5°C 61% 0.4 mph SSE0.6 kmh SSE 1.1 mph1.8 kmh 30.06 in1017.9 mb 0.00 in0.0 mm 0.00 in0.0 mm 0.34 in8.6 mm
01:20 PM 79.9°F26.6°C 65.7°F18.7°C 62% Calm Calm 1.1 mph1.8 kmh 30.06 in1017.9 mb 0.00 in0.0 mm 0.00 in0.0 mm 0.34 in8.6 mm
01:15 PM 80.1°F26.7°C 64.5°F18.1°C 59% 0.4 mph SE0.6 kmh SE 1.1 mph1.8 kmh 30.06 in1017.9 mb 0.00 in0.0 mm 0.00 in0.0 mm 0.34 in8.6 mm
01:10 PM 80.2°F26.8°C 66.5°F19.2°C 63% 0.2 mph SSE0.3 kmh SSE 0.7 mph1.1 kmh 30.06 in1017.9 mb 0.00 in0.0 mm 0.00 in0.0 mm 0.34 in8.6 mm
01:05 PM 80.8°F27.1°C 66.6°F19.2°C 62% 0.2 mph SSE0.3 kmh SSE 0.9 mph1.4 kmh 30.06 in1017.9 mb 0.00 in0.0 mm 0.00 in0.0 mm 0.34 in8.6 mm
01:00 PM 80.8°F27.1°C 66.6°F19.2°C 62% 0.2 mph SSE0.3 kmh SSE 1.1 mph1.8 kmh 30.06 in1017.9 mb 0.00 in0.0 mm 0.00 in0.0 mm 0.34 in8.6 mm
12:55 PM 80.6°F27.0°C 66.4°F19.1°C 62% 0.2 mph S0.3 kmh S 1.1 mph1.8 kmh 30.06 in1017.9 mb 0.00 in0.0 mm 0.00 in0.0 mm 0.34 in8.6 mm
12:50 PM 81.0°F27.2°C 67.7°F19.8°C 64% 0.2 mph SW0.3 kmh SW 0.7 mph1.1 kmh 30.06 in1017.9 mb 0.00 in0.0 mm 0.00 in0.0 mm 0.34 in8.6 mm
12:45 PM 80.2°F26.8°C 67.9°F19.9°C 66% Calm Calm 0.7 mph1.1 kmh 30.06 in1017.9 mb 0.00 in0.0 mm 0.00 in0.0 mm 0.34 in8.6 mm
12:40 PM 79.0°F26.1°C 66.3°F19.1°C 65% Calm Calm 0.7 mph1.1 kmh 30.07 in1018.3 mb 0.00 in0.0 mm 0.00 in0.0 mm 0.34 in8.6 mm
12:35 PM 78.6°F25.9°C 65.9°F18.8°C 65% Calm Calm 0.7 mph1.1 kmh 30.07 in1018.3 mb 0.00 in0.0 mm 0.00 in0.0 mm 0.34 in8.6 mm
12:30 PM 78.1°F25.6°C 64.5°F18.1°C 63% Calm Calm 0.9 mph1.4 kmh 30.07 in1018.3 mb 0.00 in0.0 mm 0.00 in0.0 mm 0.34 in8.6 mm
12:25 PM 79.3°F26.3°C 65.7°F18.7°C 63% 0.2 mph S0.3 kmh S 1.6 mph2.6 kmh 30.07 in1018.3 mb 0.00 in0.0 mm 0.00 in0.0 mm 0.34 in8.6 mm
12:20 PM 78.3°F25.7°C 66.4°F19.1°C 67% Calm Calm 1.6 mph2.6 kmh 30.07 in1018.3 mb 0.00 in0.0 mm 0.00 in0.0 mm 0.34 in8.6 mm
12:15 PM 77.2°F25.1°C 66.7°F19.3°C 70% 0.2 mph SSW0.3 kmh SSW 0.9 mph1.4 kmh 30.07 in1018.3 mb 0.00 in0.0 mm 0.00 in0.0 mm 0.34 in8.6 mm
12:10 PM 75.7°F24.3°C 66.9°F19.4°C 74% Calm Calm 0.9 mph1.4 kmh 30.07 in1018.3 mb 0.00 in0.0 mm 0.00 in0.0 mm 0.34 in8.6 mm
12:05 PM 74.3°F23.5°C 65.5°F18.6°C 74% Calm Calm 0.9 mph1.4 kmh 30.07 in1018.3 mb 0.00 in0.0 mm 0.00 in0.0 mm 0.34 in8.6 mm
12:00 PM 73.9°F23.3°C 65.2°F18.4°C 74% Calm Calm 1.1 mph1.8 kmh 30.08 in1018.6 mb 0.00 in0.0 mm 0.00 in0.0 mm 0.34 in8.6 mm
11:55 AM 73.6°F23.1°C 64.8°F18.2°C 74% 0.2 mph SE0.3 kmh SE 1.1 mph1.8 kmh 30.08 in1018.6 mb 0.00 in0.0 mm 0.00 in0.0 mm 0.34 in8.6 mm
11:50 AM 73.0°F22.8°C 64.7°F18.2°C 75% 0.2 mph SE0.3 kmh SE 1.1 mph1.8 kmh 30.08 in1018.6 mb 0.00 in0.0 mm 0.00 in0.0 mm 0.34 in8.6 mm
11:45 AM 73.2°F22.9°C 64.5°F18.1°C 74% Calm Calm 0.9 mph1.4 kmh 30.08 in1018.6 mb 0.00 in0.0 mm 0.00 in0.0 mm 0.34 in8.6 mm
11:40 AM 74.3°F23.5°C 65.9°F18.8°C 75% 0.4 mph S0.6 kmh S 0.9 mph1.4 kmh 30.08 in1018.6 mb 0.00 in0.0 mm 0.00 in0.0 mm 0.34 in8.6 mm
11:35 AM 74.3°F23.5°C 66.3°F19.1°C 76% Calm Calm 0.9 mph1.4 kmh 30.09 in1019.0 mb 0.00 in0.0 mm 0.00 in0.0 mm 0.34 in8.6 mm
11:30 AM 74.1°F23.4°C 65.7°F18.7°C 75% Calm Calm 0.9 mph1.4 kmh 30.09 in1019.0 mb 0.00 in0.0 mm 0.00 in0.0 mm 0.34 in8.6 mm
11:25 AM 73.8°F23.2°C 65.4°F18.6°C 75% 0.2 mph S0.3 kmh S 1.1 mph1.8 kmh 30.08 in1018.6 mb 0.00 in0.0 mm 0.00 in0.0 mm 0.34 in8.6 mm
11:20 AM 73.2°F22.9°C 65.6°F18.7°C 77% 0.2 mph SW0.3 kmh SW 1.1 mph1.8 kmh 30.09 in1019.0 mb 0.00 in0.0 mm 0.00 in0.0 mm 0.34 in8.6 mm
11:15 AM 72.9°F22.7°C 64.9°F18.3°C 76% Calm Calm 1.1 mph1.8 kmh 30.09 in1019.0 mb 0.00 in0.0 mm 0.00 in0.0 mm 0.34 in8.6 mm
11:10 AM 72.5°F22.5°C 65.3°F18.5°C 78% Calm Calm 0.7 mph1.1 kmh 30.09 in1019.0 mb 0.00 in0.0 mm 0.00 in0.0 mm 0.34 in8.6 mm
11:05 AM 72.0°F22.2°C 65.5°F18.6°C 80% Calm Calm 0.7 mph1.1 kmh 30.08 in1018.6 mb 0.00 in0.0 mm 0.00 in0.0 mm 0.34 in8.6 mm
11:00 AM 71.1°F21.7°C 65.0°F18.3°C 81% Calm Calm 0.7 mph1.1 kmh 30.09 in1019.0 mb 0.00 in0.0 mm 0.00 in0.0 mm 0.34 in8.6 mm
10:55 AM 70.5°F21.4°C 64.1°F17.8°C 80% Calm Calm 0.9 mph1.4 kmh 30.09 in1019.0 mb 0.00 in0.0 mm 0.00 in0.0 mm 0.34 in8.6 mm
10:50 AM 70.3°F21.3°C 64.3°F17.9°C 81% 0.2 mph S0.3 kmh S 0.9 mph1.4 kmh 30.09 in1019.0 mb 0.00 in0.0 mm 0.00 in0.0 mm 0.34 in8.6 mm
10:45 AM 70.3°F21.3°C 65.6°F18.7°C 85% Calm Calm 0.7 mph1.1 kmh 30.09 in1019.0 mb 0.00 in0.0 mm 0.00 in0.0 mm 0.34 in8.6 mm
10:40 AM 69.8°F21.0°C 65.5°F18.6°C 86% Calm Calm 0.7 mph1.1 kmh 30.09 in1019.0 mb 0.00 in0.0 mm 0.00 in0.0 mm 0.34 in8.6 mm
10:35 AM 69.4°F20.8°C 65.4°F18.6°C 87% Calm Calm 0.7 mph1.1 kmh 30.09 in1019.0 mb 0.00 in0.0 mm 0.00 in0.0 mm 0.34 in8.6 mm
10:30 AM 68.7°F20.4°C 64.4°F18.0°C 86% Calm Calm 0.9 mph1.4 kmh 30.09 in1019.0 mb 0.00 in0.0 mm 0.00 in0.0 mm 0.34 in8.6 mm
10:25 AM 68.4°F20.2°C 64.0°F17.8°C 86% 0.2 mph SW0.3 kmh SW 0.9 mph1.4 kmh 30.09 in1019.0 mb 0.00 in0.0 mm 0.00 in0.0 mm 0.34 in8.6 mm
10:20 AM 68.0°F20.0°C 64.0°F17.8°C 87% 0.2 mph SE0.3 kmh SE 0.9 mph1.4 kmh 30.09 in1019.0 mb 0.00 in0.0 mm 0.00 in0.0 mm 0.34 in8.6 mm
10:15 AM 67.5°F19.7°C 64.8°F18.2°C 91% Calm Calm 0.9 mph1.4 kmh 30.09 in1019.0 mb 0.00 in0.0 mm 0.00 in0.0 mm 0.34 in8.6 mm
10:10 AM 66.9°F19.4°C 63.6°F17.6°C 89% 0.2 mph SE0.3 kmh SE 0.9 mph1.4 kmh 30.10 in1019.3 mb 0.00 in0.0 mm 0.00 in0.0 mm 0.34 in8.6 mm
10:05 AM 67.1°F19.5°C 64.7°F18.2°C 92% 0.4 mph S0.6 kmh S 0.9 mph1.4 kmh 30.09 in1019.0 mb 0.00 in0.0 mm 0.00 in0.0 mm 0.34 in8.6 mm
10:00 AM 66.9°F19.4°C 65.2°F18.4°C 94% Calm Calm 0.9 mph1.4 kmh 30.09 in1019.0 mb 0.00 in0.0 mm 0.00 in0.0 mm 0.34 in8.6 mm
09:55 AM 66.6°F19.2°C 64.8°F18.2°C 94% 0.2 mph SE0.3 kmh SE 0.9 mph1.4 kmh 30.10 in1019.3 mb 0.00 in0.0 mm 0.00 in0.0 mm 0.34 in8.6 mm
09:50 AM 66.2°F19.0°C 64.8°F18.2°C 95% Calm Calm 0.7 mph1.1 kmh 30.10 in1019.3 mb 0.00 in0.0 mm 0.00 in0.0 mm 0.34 in8.6 mm
09:45 AM 65.7°F18.7°C 64.5°F18.1°C 96% 0.2 mph ESE0.3 kmh ESE 1.3 mph2.1 kmh 30.10 in1019.3 mb 0.00 in0.0 mm 0.00 in0.0 mm 0.34 in8.6 mm
09:40 AM 65.5°F18.6°C 64.9°F18.3°C 98% Calm Calm 1.3 mph2.1 kmh 30.10 in1019.3 mb 0.00 in0.0 mm 0.00 in0.0 mm 0.34 in8.6 mm
09:35 AM 65.3°F18.5°C 65.0°F18.3°C 99% 0.2 mph ESE0.3 kmh ESE 0.9 mph1.4 kmh 30.10 in1019.3 mb 0.00 in0.0 mm 0.00 in0.0 mm 0.34 in8.6 mm
09:30 AM 64.8°F18.2°C 64.5°F18.1°C 99% 0.2 mph ESE0.3 kmh ESE 0.9 mph1.4 kmh 30.10 in1019.3 mb 0.00 in0.0 mm 0.00 in0.0 mm 0.34 in8.6 mm
09:25 AM 64.8°F18.2°C 64.5°F18.1°C 99% Calm Calm 1.1 mph1.8 kmh 30.09 in1019.0 mb 0.00 in0.0 mm 0.00 in0.0 mm 0.34 in8.6 mm
09:20 AM 64.4°F18.0°C 64.1°F17.8°C 99% 0.2 mph SE0.3 kmh SE 1.1 mph1.8 kmh 30.09 in1019.0 mb 0.00 in0.0 mm 0.00 in0.0 mm 0.34 in8.6 mm
09:15 AM 64.2°F17.9°C 64.0°F17.8°C 99% Calm Calm 1.1 mph1.8 kmh 30.09 in1019.0 mb 0.00 in0.0 mm 0.00 in0.0 mm 0.34 in8.6 mm
09:10 AM 64.0°F17.8°C 63.8°F17.7°C 99% Calm Calm 0.9 mph1.4 kmh 30.09 in1019.0 mb 0.00 in0.0 mm 0.00 in0.0 mm 0.34 in8.6 mm
09:05 AM 63.7°F17.6°C 63.4°F17.4°C 99% Calm Calm 1.1 mph1.8 kmh 30.09 in1019.0 mb 0.00 in0.0 mm 0.00 in0.0 mm 0.34 in8.6 mm
09:00 AM 63.1°F17.3°C 62.9°F17.2°C 99% Calm Calm 1.1 mph1.8 kmh 30.10 in1019.3 mb 0.00 in0.0 mm 0.00 in0.0 mm 0.34 in8.6 mm
08:55 AM 63.0°F17.2°C 62.7°F17.1°C 99% 0.2 mph ESE0.3 kmh ESE 0.9 mph1.4 kmh 30.10 in1019.3 mb 0.00 in0.0 mm 0.00 in0.0 mm 0.34 in8.6 mm
08:50 AM 62.6°F17.0°C 62.3°F16.8°C 99% Calm Calm 0.9 mph1.4 kmh 30.09 in1019.0 mb 0.00 in0.0 mm 0.00 in0.0 mm 0.34 in8.6 mm
08:45 AM 62.6°F17.0°C 62.3°F16.8°C 99% Calm Calm 0.7 mph1.1 kmh 30.09 in1019.0 mb 0.00 in0.0 mm 0.00 in0.0 mm 0.34 in8.6 mm
08:40 AM 62.2°F16.8°C 62.0°F16.7°C 99% Calm Calm 0.7 mph1.1 kmh 30.09 in1019.0 mb 0.00 in0.0 mm 0.00 in0.0 mm 0.34 in8.6 mm
08:35 AM 62.1°F16.7°C 61.8°F16.6°C 99% Calm Calm 0.7 mph1.1 kmh 30.09 in1019.0 mb 0.00 in0.0 mm 0.00 in0.0 mm 0.34 in8.6 mm
08:30 AM 61.5°F16.4°C 61.3°F16.3°C 99% 0.2 mph SE0.3 kmh SE 0.7 mph1.1 kmh 30.10 in1019.3 mb 0.00 in0.0 mm 0.00 in0.0 mm 0.34 in8.6 mm
08:25 AM 61.3°F16.3°C 61.1°F16.2°C 99% Calm Calm 0.4 mph0.6 kmh 30.10 in1019.3 mb 0.00 in0.0 mm 0.00 in0.0 mm 0.34 in8.6 mm
08:20 AM 61.2°F16.2°C 60.9°F16.1°C 99% Calm Calm 0.4 mph0.6 kmh 30.09 in1019.0 mb 0.00 in0.0 mm 0.00 in0.0 mm 0.34 in8.6 mm
08:15 AM 60.6°F15.9°C 60.4°F15.8°C 99% 0.2 mph SE0.3 kmh SE 0.4 mph0.6 kmh 30.09 in1019.0 mb 0.00 in0.0 mm 0.00 in0.0 mm 0.34 in8.6 mm
08:10 AM 60.4°F15.8°C 60.2°F15.7°C 99% Calm Calm 0.4 mph0.6 kmh 30.09 in1019.0 mb 0.00 in0.0 mm 0.00 in0.0 mm 0.34 in8.6 mm
08:05 AM 60.4°F15.8°C 60.2°F15.7°C 99% Calm Calm 0.4 mph0.6 kmh 30.10 in1019.3 mb 0.00 in0.0 mm 0.00 in0.0 mm 0.34 in8.6 mm
08:00 AM 60.1°F15.6°C 59.8°F15.4°C 99% Calm Calm 0.2 mph0.3 kmh 30.09 in1019.0 mb 0.01 in0.3 mm 0.00 in0.0 mm 0.34 in8.6 mm
07:55 AM 59.9°F15.5°C 59.6°F15.3°C 99% Calm Calm 0.4 mph0.6 kmh 30.08 in1018.6 mb 0.01 in0.3 mm 0.00 in0.0 mm 0.34 in8.6 mm
07:50 AM 59.9°F15.5°C 59.6°F15.3°C 99% Calm Calm 0.4 mph0.6 kmh 30.10 in1019.3 mb 0.01 in0.3 mm 0.00 in0.0 mm 0.34 in8.6 mm
07:45 AM 59.9°F15.5°C 59.6°F15.3°C 99% Calm Calm 0.4 mph0.6 kmh 30.10 in1019.3 mb 0.01 in0.3 mm 0.00 in0.0 mm 0.34 in8.6 mm
07:40 AM 59.9°F15.5°C 59.6°F15.3°C 99% Calm Calm 0.7 mph1.1 kmh 30.09 in1019.0 mb 0.01 in0.3 mm 0.00 in0.0 mm 0.34 in8.6 mm
07:35 AM 59.9°F15.5°C 59.6°F15.3°C 99% Calm Calm 0.7 mph1.1 kmh 30.08 in1018.6 mb 0.01 in0.3 mm 0.00 in0.0 mm 0.34 in8.6 mm
07:30 AM 59.7°F15.4°C 59.5°F15.3°C 99% Calm Calm 0.4 mph0.6 kmh 30.08 in1018.6 mb 0.01 in0.3 mm 0.00 in0.0 mm 0.34 in8.6 mm
07:25 AM 59.7°F15.4°C 59.5°F15.3°C 99% Calm Calm 0.7 mph1.1 kmh 30.09 in1019.0 mb 0.01 in0.3 mm 0.00 in0.0 mm 0.34 in8.6 mm
07:20 AM 59.5°F15.3°C 59.3°F15.2°C 99% 0.2 mph ESE0.3 kmh ESE 0.7 mph1.1 kmh 30.09 in1019.0 mb 0.01 in0.3 mm 0.00 in0.0 mm 0.34 in8.6 mm
07:15 AM 59.5°F15.3°C 59.3°F15.2°C 99% Calm Calm 0.7 mph1.1 kmh 30.09 in1019.0 mb 0.01 in0.3 mm 0.00 in0.0 mm 0.34 in8.6 mm
07:10 AM 59.4°F15.2°C 59.1°F15.1°C 99% Calm Calm 0.7 mph1.1 kmh 30.09 in1019.0 mb 0.01 in0.3 mm 0.00 in0.0 mm 0.34 in8.6 mm
07:05 AM 59.4°F15.2°C 59.1°F15.1°C 99% Calm Calm 0.4 mph0.6 kmh 30.08 in1018.6 mb 0.01 in0.3 mm 0.12 in3.0 mm 0.34 in8.6 mm
07:00 AM 59.2°F15.1°C 58.9°F14.9°C 99% Calm Calm 0.4 mph0.6 kmh 30.09 in1019.0 mb 0.00 in0.0 mm 0.00 in0.0 mm 0.33 in8.4 mm
06:55 AM 59.2°F15.1°C 58.9°F14.9°C 99% Calm Calm 0.4 mph0.6 kmh 30.09 in1019.0 mb 0.00 in0.0 mm 0.00 in0.0 mm 0.33 in8.4 mm
06:50 AM 59.0°F15.0°C 58.7°F14.8°C 99% Calm Calm 0.4 mph0.6 kmh 30.09 in1019.0 mb 0.00 in0.0 mm 0.00 in0.0 mm 0.33 in8.4 mm
06:45 AM 59.0°F15.0°C 58.7°F14.8°C 99% Calm Calm 0.2 mph0.3 kmh 30.09 in1019.0 mb 0.01 in0.3 mm 0.00 in0.0 mm 0.33 in8.4 mm
06:40 AM 58.6°F14.8°C 58.4°F14.7°C 99% Calm Calm 0.4 mph0.6 kmh 30.08 in1018.6 mb 0.02 in0.5 mm 0.00 in0.0 mm 0.33 in8.4 mm
06:35 AM 58.5°F14.7°C 58.2°F14.6°C 99% Calm Calm 0.4 mph0.6 kmh 30.08 in1018.6 mb 0.04 in1.0 mm 0.00 in0.0 mm 0.33 in8.4 mm
06:30 AM 58.3°F14.6°C 58.0°F14.4°C 99% Calm Calm 0.4 mph0.6 kmh 30.07 in1018.3 mb 0.05 in1.3 mm 0.00 in0.0 mm 0.33 in8.4 mm
06:25 AM 58.1°F14.5°C 57.8°F14.3°C 99% Calm Calm 0.7 mph1.1 kmh 30.07 in1018.3 mb 0.05 in1.3 mm 0.00 in0.0 mm 0.33 in8.4 mm
06:20 AM 57.9°F14.4°C 57.7°F14.3°C 99% Calm Calm 0.7 mph1.1 kmh 30.07 in1018.3 mb 0.07 in1.8 mm 0.00 in0.0 mm 0.33 in8.4 mm
06:15 AM 57.7°F14.3°C 57.5°F14.2°C 99% Calm Calm 0.7 mph1.1 kmh 30.06 in1017.9 mb 0.07 in1.8 mm 0.00 in0.0 mm 0.33 in8.4 mm
06:10 AM 57.7°F14.3°C 57.5°F14.2°C 99% Calm Calm 0.7 mph1.1 kmh 30.06 in1017.9 mb 0.07 in1.8 mm 0.00 in0.0 mm 0.33 in8.4 mm
06:05 AM 57.7°F14.3°C 57.5°F14.2°C 99% Calm Calm 0.4 mph0.6 kmh 30.06 in1017.9 mb 0.08 in2.0 mm 0.00 in0.0 mm 0.33 in8.4 mm
06:00 AM 57.6°F14.2°C 57.3°F14.1°C 99% Calm Calm 0.4 mph0.6 kmh 30.06 in1017.9 mb 0.08 in2.0 mm 0.00 in0.0 mm 0.33 in8.4 mm
05:55 AM 57.6°F14.2°C 57.3°F14.1°C 99% Calm Calm 0.2 mph0.3 kmh 30.06 in1017.9 mb 0.08 in2.0 mm 0.00 in0.0 mm 0.33 in8.4 mm
05:50 AM 57.6°F14.2°C 57.3°F14.1°C 99% Calm Calm 0.4 mph0.6 kmh 30.08 in1018.6 mb 0.08 in2.0 mm 0.24 in6.1 mm 0.33 in8.4 mm
05:45 AM 57.4°F14.1°C 57.1°F13.9°C 99% Calm Calm 0.4 mph0.6 kmh 30.07 in1018.3 mb 0.06 in1.5 mm 0.00 in0.0 mm 0.31 in7.9 mm
05:40 AM 57.4°F14.1°C 57.1°F13.9°C 99% 0.2 mph E0.3 kmh E 0.7 mph1.1 kmh 30.07 in1018.3 mb 0.06 in1.5 mm 0.00 in0.0 mm 0.31 in7.9 mm
05:35 AM 57.4°F14.1°C 57.1°F13.9°C 99% Calm Calm 0.7 mph1.1 kmh 30.07 in1018.3 mb 0.06 in1.5 mm 0.12 in3.0 mm 0.30 in7.6 mm
05:30 AM 57.4°F14.1°C 57.1°F13.9°C 99% Calm Calm 1.3 mph2.1 kmh 30.07 in1018.3 mb 0.05 in1.3 mm 0.00 in0.0 mm 0.28 in7.1 mm
05:25 AM 57.4°F14.1°C 57.1°F13.9°C 99% 0.2 mph ESE0.3 kmh ESE 1.6 mph2.6 kmh 30.07 in1018.3 mb 0.05 in1.3 mm 0.36 in9.1 mm 0.28 in7.1 mm
05:20 AM 57.4°F14.1°C 57.1°F13.9°C 99% 0.4 mph E0.6 kmh E 1.6 mph2.6 kmh 30.07 in1018.3 mb 0.02 in0.5 mm 0.00 in0.0 mm 0.26 in6.6 mm
05:15 AM 57.4°F14.1°C 57.1°F13.9°C 99% 0.2 mph ESE0.3 kmh ESE 0.9 mph1.4 kmh 30.07 in1018.3 mb 0.02 in0.5 mm 0.00 in0.0 mm 0.26 in6.6 mm
05:10 AM 57.4°F14.1°C 57.1°F13.9°C 99% Calm Calm 0.9 mph1.4 kmh 30.07 in1018.3 mb 0.04 in1.0 mm 0.24 in6.1 mm 0.26 in6.6 mm
05:05 AM 57.4°F14.1°C 57.1°F13.9°C 99% Calm Calm 1.1 mph1.8 kmh 30.06 in1017.9 mb 0.02 in0.5 mm 0.00 in0.0 mm 0.25 in6.4 mm
05:00 AM 57.4°F14.1°C 57.1°F13.9°C 99% 0.2 mph ESE0.3 kmh ESE 1.1 mph1.8 kmh 30.06 in1017.9 mb 0.04 in1.0 mm 0.00 in0.0 mm 0.25 in6.4 mm
04:55 AM 57.2°F14.0°C 56.9°F13.8°C 99% 0.4 mph E0.6 kmh E 1.1 mph1.8 kmh 30.05 in1017.6 mb 0.05 in1.3 mm 0.00 in0.0 mm 0.25 in6.4 mm
04:50 AM 57.4°F14.1°C 57.1°F13.9°C 99% 0.2 mph E0.3 kmh E 0.9 mph1.4 kmh 30.05 in1017.6 mb 0.05 in1.3 mm 0.00 in0.0 mm 0.25 in6.4 mm
04:45 AM 57.4°F14.1°C 57.1°F13.9°C 99% Calm Calm 0.7 mph1.1 kmh 30.04 in1017.3 mb 0.07 in1.8 mm 0.00 in0.0 mm 0.25 in6.4 mm
04:40 AM 57.4°F14.1°C 57.1°F13.9°C 99% Calm Calm 0.9 mph1.4 kmh 30.04 in1017.3 mb 0.08 in2.0 mm 0.00 in0.0 mm 0.25 in6.4 mm
04:35 AM 57.4°F14.1°C 57.1°F13.9°C 99% 0.2 mph E0.3 kmh E 1.1 mph1.8 kmh 30.04 in1017.3 mb 0.09 in2.3 mm 0.00 in0.0 mm 0.24 in6.1 mm
04:30 AM 57.4°F14.1°C 57.1°F13.9°C 99% 0.2 mph ESE0.3 kmh ESE 1.1 mph1.8 kmh 30.04 in1017.3 mb 0.09 in2.3 mm 0.00 in0.0 mm 0.24 in6.1 mm
04:25 AM 57.4°F14.1°C 57.1°F13.9°C 99% 0.2 mph ESE0.3 kmh ESE 1.1 mph1.8 kmh 30.04 in1017.3 mb 0.11 in2.8 mm 0.00 in0.0 mm 0.24 in6.1 mm
04:20 AM 57.4°F14.1°C 57.1°F13.9°C 99% 0.2 mph E0.3 kmh E 1.1 mph1.8 kmh 30.04 in1017.3 mb 0.11 in2.8 mm 0.00 in0.0 mm 0.24 in6.1 mm
04:15 AM 57.6°F14.2°C 57.3°F14.1°C 99% 0.4 mph E0.6 kmh E 1.1 mph1.8 kmh 30.04 in1017.3 mb 0.11 in2.8 mm 0.00 in0.0 mm 0.22 in5.6 mm
04:10 AM 57.6°F14.2°C 57.3°F14.1°C 99% Calm Calm 0.7 mph1.1 kmh 30.04 in1017.3 mb 0.11 in2.8 mm 0.00 in0.0 mm 0.22 in5.6 mm
04:05 AM 57.7°F14.3°C 57.5°F14.2°C 99% Calm Calm 0.4 mph0.6 kmh 30.04 in1017.3 mb 0.11 in2.8 mm 0.00 in0.0 mm 0.22 in5.6 mm
04:00 AM 57.7°F14.3°C 57.5°F14.2°C 99% Calm Calm 0.7 mph1.1 kmh 30.04 in1017.3 mb 0.11 in2.8 mm 0.00 in0.0 mm 0.21 in5.3 mm
03:55 AM 57.7°F14.3°C 57.5°F14.2°C 99% Calm Calm 0.7 mph1.1 kmh 30.04 in1017.3 mb 0.11 in2.8 mm 0.24 in6.1 mm 0.20 in5.1 mm
03:50 AM 57.7°F14.3°C 57.5°F14.2°C 99% Calm Calm 0.9 mph1.4 kmh 30.04 in1017.3 mb 0.09 in2.3 mm 0.12 in3.0 mm 0.19 in4.8 mm
03:45 AM 57.9°F14.4°C 57.7°F14.3°C 99% Calm Calm 1.1 mph1.8 kmh 30.03 in1016.9 mb 0.08 in2.0 mm 0.12 in3.0 mm 0.18 in4.6 mm
03:40 AM 57.9°F14.4°C 57.7°F14.3°C 99% 0.2 mph E0.3 kmh E 1.8 mph2.9 kmh 30.04 in1017.3 mb 0.07 in1.8 mm 0.12 in3.0 mm 0.17 in4.3 mm
03:35 AM 57.9°F14.4°C 57.7°F14.3°C 99% 0.4 mph E0.6 kmh E 1.8 mph2.9 kmh 30.04 in1017.3 mb 0.06 in1.5 mm 0.00 in0.0 mm 0.14 in3.6 mm
03:30 AM 57.9°F14.4°C 57.7°F14.3°C 99% 0.2 mph E0.3 kmh E 2.5 mph4.0 kmh 30.04 in1017.3 mb 0.07 in1.8 mm 0.00 in0.0 mm 0.14 in3.6 mm
03:25 AM 58.1°F14.5°C 57.8°F14.3°C 99% 0.2 mph E0.3 kmh E 2.5 mph4.0 kmh 30.04 in1017.3 mb 0.08 in2.0 mm 0.00 in0.0 mm 0.13 in3.3 mm
03:20 AM 58.3°F14.6°C 58.0°F14.4°C 99% 0.4 mph E0.6 kmh E 1.1 mph1.8 kmh 30.03 in1016.9 mb 0.11 in2.8 mm 0.00 in0.0 mm 0.13 in3.3 mm
03:15 AM 58.5°F14.7°C 58.2°F14.6°C 99% 0.2 mph ESE0.3 kmh ESE 1.1 mph1.8 kmh 30.02 in1016.6 mb 0.11 in2.8 mm 0.00 in0.0 mm 0.12 in3.0 mm
03:10 AM 58.3°F14.6°C 58.0°F14.4°C 99% Calm Calm 0.9 mph1.4 kmh 30.02 in1016.6 mb 0.11 in2.8 mm 0.00 in0.0 mm 0.12 in3.0 mm
03:05 AM 58.3°F14.6°C 58.0°F14.4°C 99% 0.2 mph ESE0.3 kmh ESE 0.7 mph1.1 kmh 30.02 in1016.6 mb 0.11 in2.8 mm 0.24 in6.1 mm 0.12 in3.0 mm
03:00 AM 58.3°F14.6°C 58.0°F14.4°C 99% 0.2 mph SE0.3 kmh SE 0.7 mph1.1 kmh 30.02 in1016.6 mb 0.09 in2.3 mm 0.00 in0.0 mm 0.11 in2.8 mm
02:55 AM 58.3°F14.6°C 58.0°F14.4°C 99% 0.2 mph E0.3 kmh E 0.7 mph1.1 kmh 30.02 in1016.6 mb 0.09 in2.3 mm 0.00 in0.0 mm 0.09 in2.3 mm
02:50 AM 58.5°F14.7°C 58.2°F14.6°C 99% Calm Calm 0.9 mph1.4 kmh 30.02 in1016.6 mb 0.09 in2.3 mm 0.00 in0.0 mm 0.09 in2.3 mm
02:45 AM 58.5°F14.7°C 58.2°F14.6°C 99% 0.2 mph E0.3 kmh E 0.9 mph1.4 kmh 30.02 in1016.6 mb 0.09 in2.3 mm 0.00 in0.0 mm 0.09 in2.3 mm
02:40 AM 58.5°F14.7°C 58.2°F14.6°C 99% 0.2 mph ESE0.3 kmh ESE 0.7 mph1.1 kmh 30.02 in1016.6 mb 0.09 in2.3 mm 0.12 in3.0 mm 0.09 in2.3 mm
02:35 AM 58.6°F14.8°C 58.4°F14.7°C 99% Calm Calm 0.7 mph1.1 kmh 30.02 in1016.6 mb 0.08 in2.0 mm 0.12 in3.0 mm 0.08 in2.0 mm
02:30 AM 58.6°F14.8°C 58.4°F14.7°C 99% 0.2 mph E0.3 kmh E 0.9 mph1.4 kmh 30.02 in1016.6 mb 0.07 in1.8 mm 0.24 in6.1 mm 0.07 in1.8 mm
02:25 AM 58.8°F14.9°C 58.6°F14.8°C 99% Calm Calm 0.9 mph1.4 kmh 30.02 in1016.6 mb 0.05 in1.3 mm 0.36 in9.1 mm 0.05 in1.3 mm
02:20 AM 59.0°F15.0°C 58.7°F14.8°C 99% Calm Calm 1.1 mph1.8 kmh 30.02 in1016.6 mb 0.02 in0.5 mm 0.12 in3.0 mm 0.02 in0.5 mm
02:15 AM 59.2°F15.1°C 58.9°F14.9°C 99% Calm Calm 1.1 mph1.8 kmh 30.02 in1016.6 mb 0.01 in0.3 mm 0.00 in0.0 mm 0.01 in0.3 mm
02:10 AM 59.4°F15.2°C 59.1°F15.1°C 99% Calm Calm 0.9 mph1.4 kmh 30.02 in1016.6 mb 0.01 in0.3 mm 0.00 in0.0 mm 0.01 in0.3 mm
02:05 AM 59.5°F15.3°C 59.3°F15.2°C 99% 0.2 mph ESE0.3 kmh ESE 0.9 mph1.4 kmh 30.02 in1016.6 mb 0.01 in0.3 mm 0.00 in0.0 mm 0.01 in0.3 mm
02:00 AM 59.9°F15.5°C 59.6°F15.3°C 99% Calm Calm 0.7 mph1.1 kmh 30.02 in1016.6 mb 0.01 in0.3 mm 0.01 in0.3 mm 0.01 in0.3 mm
01:55 AM 59.9°F15.5°C 59.6°F15.3°C 99% Calm Calm 0.4 mph0.6 kmh 30.02 in1016.6 mb 0.00 in0.0 mm 0.00 in0.0 mm 0.00 in0.0 mm
01:50 AM 59.9°F15.5°C 59.6°F15.3°C 99% Calm Calm 0.4 mph0.6 kmh 30.01 in1016.3 mb 0.00 in0.0 mm 0.00 in0.0 mm 0.00 in0.0 mm
01:45 AM 59.9°F15.5°C 59.6°F15.3°C 99% Calm Calm 0.4 mph0.6 kmh 30.02 in1016.6 mb 0.00 in0.0 mm 0.00 in0.0 mm 0.00 in0.0 mm
01:40 AM 59.9°F15.5°C 59.6°F15.3°C 99% Calm Calm 0.7 mph1.1 kmh 30.02 in1016.6 mb 0.00 in0.0 mm 0.00 in0.0 mm 0.00 in0.0 mm
01:35 AM 59.9°F15.5°C 59.6°F15.3°C 99% Calm Calm 0.7 mph1.1 kmh 30.01 in1016.3 mb 0.00 in0.0 mm 0.00 in0.0 mm 0.00 in0.0 mm
01:30 AM 59.9°F15.5°C 59.6°F15.3°C 99% Calm Calm 0.4 mph0.6 kmh 30.01 in1016.3 mb 0.00 in0.0 mm 0.00 in0.0 mm 0.00 in0.0 mm
01:25 AM 59.9°F15.5°C 59.6°F15.3°C 99% Calm Calm 0.4 mph0.6 kmh 30.01 in1016.3 mb 0.00 in0.0 mm 0.00 in0.0 mm 0.00 in0.0 mm
01:20 AM 59.9°F15.5°C 59.6°F15.3°C 99% Calm Calm 0.4 mph0.6 kmh 30.01 in1016.3 mb 0.00 in0.0 mm 0.00 in0.0 mm 0.00 in0.0 mm
01:15 AM 59.9°F15.5°C 59.6°F15.3°C 99% Calm Calm 0.4 mph0.6 kmh 30.01 in1016.3 mb 0.00 in0.0 mm 0.00 in0.0 mm 0.00 in0.0 mm
01:10 AM 59.9°F15.5°C 59.6°F15.3°C 99% Calm Calm 0.4 mph0.6 kmh 30.01 in1016.3 mb 0.00 in0.0 mm 0.00 in0.0 mm 0.00 in0.0 mm
01:05 AM 59.9°F15.5°C 59.6°F15.3°C 99% Calm Calm 0.4 mph0.6 kmh 30.02 in1016.6 mb 0.00 in0.0 mm 0.00 in0.0 mm 0.00 in0.0 mm
01:00 AM 59.9°F15.5°C 59.6°F15.3°C 99% Calm Calm 0.4 mph0.6 kmh 30.02 in1016.6 mb 0.00 in0.0 mm 0.00 in0.0 mm 0.00 in0.0 mm
12:55 AM 59.9°F15.5°C 59.6°F15.3°C 99% Calm Calm 0.2 mph0.3 kmh 30.02 in1016.6 mb 0.00 in0.0 mm 0.00 in0.0 mm 0.00 in0.0 mm
12:50 AM 59.9°F15.5°C 59.6°F15.3°C 99% Calm Calm 0.4 mph0.6 kmh 30.02 in1016.6 mb 0.00 in0.0 mm 0.00 in0.0 mm 0.00 in0.0 mm
12:45 AM 59.9°F15.5°C 59.6°F15.3°C 99% Calm Calm 0.7 mph1.1 kmh 30.02 in1016.6 mb 0.00 in0.0 mm 0.00 in0.0 mm 0.00 in0.0 mm
12:40 AM 59.9°F15.5°C 59.6°F15.3°C 99% Calm Calm 0.7 mph1.1 kmh 30.02 in1016.6 mb 0.00 in0.0 mm 0.00 in0.0 mm 0.00 in0.0 mm
12:35 AM 59.9°F15.5°C 59.6°F15.3°C 99% Calm Calm 0.7 mph1.1 kmh 30.02 in1016.6 mb 0.00 in0.0 mm 0.00 in0.0 mm 0.00 in0.0 mm
12:30 AM 59.9°F15.5°C 59.6°F15.3°C 99% Calm Calm 0.9 mph1.4 kmh 30.02 in1016.6 mb 0.00 in0.0 mm 0.00 in0.0 mm 0.00 in0.0 mm
12:25 AM 59.9°F15.5°C 59.6°F15.3°C 99% Calm Calm 0.9 mph1.4 kmh 30.02 in1016.6 mb 0.00 in0.0 mm 0.00 in0.0 mm 0.00 in0.0 mm
12:20 AM 59.9°F15.5°C 59.6°F15.3°C 99% Calm Calm 0.7 mph1.1 kmh 30.02 in1016.6 mb 0.00 in0.0 mm 0.00 in0.0 mm 0.00 in0.0 mm
12:15 AM 59.9°F15.5°C 59.6°F15.3°C 99% Calm Calm 0.9 mph1.4 kmh 30.03 in1016.9 mb 0.00 in0.0 mm 0.00 in0.0 mm 0.00 in0.0 mm
12:10 AM 59.7°F15.4°C 59.5°F15.3°C 99% 0.4 mph E0.6 kmh E 0.9 mph1.4 kmh 30.02 in1016.6 mb 0.00 in0.0 mm 0.00 in0.0 mm 0.00 in0.0 mm
12:05 AM 59.9°F15.5°C 59.6°F15.3°C 99% Calm Calm 0.7 mph1.1 kmh 30.02 in1016.6 mb 0.00 in0.0 mm 0.00 in0.0 mm 0.00 in0.0 mm
12:00 AM 59.9°F15.5°C 59.6°F15.3°C 99% Calm Calm 0.7 mph1.1 kmh 30.02 in1016.6 mb 0.00 in0.0 mm 0.00 in0.0 mm 0.00 in0.0 mm